createdAt,value
2023-01-04T00:01:14.302Z,8.63
2023-01-04T00:03:41.747Z,6.10
2023-01-04T00:06:11.487Z,8.73
2023-01-04T00:08:39.088Z,11.18
2023-01-04T00:11:20.311Z,7.45
2023-01-04T00:13:52.696Z,7.53
2023-01-04T00:16:22.007Z,8.93
2023-01-04T00:18:49.978Z,5.18
2023-01-04T00:21:19.942Z,7.82
2023-01-04T00:23:51.312Z,3.75
2023-01-04T00:26:23.861Z,9.75
2023-01-04T00:28:59.436Z,10.32
2023-01-04T00:31:27.047Z,8.15
2023-01-04T00:33:56.131Z,10.90
2023-01-04T00:36:23.781Z,7.60
2023-01-04T00:39:07.484Z,13.13
2023-01-04T00:42:01.144Z,5.20
2023-01-04T00:44:29.817Z,4.47
2023-01-04T00:46:57.311Z,9.15
2023-01-04T00:49:24.885Z,12.73
2023-01-04T00:51:52.147Z,4.22
2023-01-04T00:54:20.268Z,5.40
2023-01-04T00:56:47.788Z,9.88
2023-01-04T00:59:17.107Z,8.82
2023-01-04T01:01:45.215Z,10.43
2023-01-04T01:04:14.166Z,7.32
2023-01-04T01:06:41.440Z,5.82
2023-01-04T01:09:09.305Z,9.13
2023-01-04T01:11:38.367Z,6.13
2023-01-04T01:14:05.859Z,9.65
2023-01-04T01:19:20.595Z,9.82
2023-01-04T01:21:47.881Z,9.02
2023-01-04T01:24:17.072Z,6.20
2023-01-04T01:26:44.556Z,10.30
2023-01-04T01:29:11.842Z,9.15
2023-01-04T01:31:41.217Z,7.40
2023-01-04T01:34:08.676Z,8.00
2023-01-04T01:36:36.064Z,3.67
2023-01-04T01:39:03.666Z,5.35
2023-01-04T01:41:33.398Z,8.90
2023-01-04T01:44:00.688Z,7.97
2023-01-04T01:46:50.581Z,14.10
2023-01-04T01:49:37.943Z,7.22
2023-01-04T01:52:09.322Z,6.25
2023-01-04T01:54:41.983Z,6.75
2023-01-04T01:57:12.435Z,8.35
2023-01-04T01:59:42.503Z,9.05
2023-01-04T02:02:10.605Z,4.40
2023-01-04T02:04:42.353Z,8.68
2023-01-04T02:07:10.463Z,11.43
2023-01-04T02:09:38.015Z,5.13
2023-01-04T02:12:05.206Z,5.22
2023-01-04T02:14:32.605Z,7.07
2023-01-04T02:17:16.825Z,6.78
2023-01-04T02:20:03.941Z,7.25
2023-01-04T02:22:49.533Z,6.80
2023-01-04T02:25:50.721Z,14.02
2023-01-04T02:28:55.224Z,7.00
2023-01-04T02:31:57.412Z,5.72
2023-01-04T02:34:37.547Z,7.93
2023-01-04T02:37:19.622Z,8.48
2023-01-04T02:39:59.312Z,9.43
2023-01-04T02:42:55.289Z,10.48
2023-01-04T02:45:28.987Z,6.80
2023-01-04T02:48:14.864Z,3.63
2023-01-04T02:50:51.250Z,9.73
2023-01-04T02:53:22.562Z,5.63
2023-01-04T02:55:58.509Z,6.38
2023-01-04T02:59:07.006Z,5.65
2023-01-04T03:02:07.101Z,9.00
2023-01-04T03:05:14.627Z,13.23
2023-01-04T03:07:48.049Z,5.50
2023-01-04T03:10:41.528Z,4.95
2023-01-04T03:13:31.108Z,4.72
2023-01-04T03:16:08.175Z,7.88
2023-01-04T03:18:41.060Z,2.17
2023-01-04T03:21:11.748Z,5.50
2023-01-04T03:23:58.418Z,8.52
2023-01-04T03:26:55.516Z,4.97
2023-01-04T03:30:13.583Z,4.93
2023-01-04T03:33:25.157Z,4.32
2023-01-04T03:36:13.066Z,4.38
2023-01-04T03:39:16.520Z,6.35
2023-01-04T03:42:41.163Z,6.05
2023-01-04T03:45:38.581Z,8.50
2023-01-04T03:48:30.549Z,7.72
2023-01-04T03:51:15.620Z,14.88
2023-01-04T03:53:59.387Z,9.52
2023-01-04T03:56:28.559Z,5.05
2023-01-04T03:58:56.031Z,7.47
2023-01-04T04:01:25.598Z,5.05
2023-01-04T04:04:11.832Z,12.00
2023-01-04T04:06:57.644Z,5.32
2023-01-04T04:09:24.713Z,5.80
2023-01-04T04:11:51.959Z,6.15
2023-01-04T04:14:19.317Z,2.53
2023-01-04T04:16:46.706Z,4.05
2023-01-04T04:19:14.095Z,7.65
2023-01-04T04:21:41.341Z,6.40
2023-01-04T04:24:10.494Z,3.95
2023-01-04T04:26:37.763Z,6.63
2023-01-04T04:29:05.063Z,6.35
2023-01-04T04:31:34.590Z,8.35
2023-01-04T04:34:02.066Z,5.30
2023-01-04T04:36:29.379Z,4.25
2023-01-04T04:38:56.668Z,5.20
2023-01-04T04:41:39.018Z,9.00
2023-01-04T04:44:11.287Z,4.15
2023-01-04T04:46:38.684Z,8.07
2023-01-04T04:49:06.486Z,3.80
2023-01-04T04:51:33.815Z,11.48
2023-01-04T04:54:01.108Z,5.72
2023-01-04T04:56:28.403Z,7.57
2023-01-04T04:58:55.801Z,6.13
2023-01-04T05:01:23.253Z,6.85
2023-01-04T05:04:00.167Z,4.68
2023-01-04T05:06:27.899Z,4.63
2023-01-04T05:08:55.245Z,8.75
2023-01-04T05:11:42.474Z,5.78
2023-01-04T05:14:10.278Z,7.95
2023-01-04T05:16:37.972Z,4.85
2023-01-04T05:19:05.455Z,6.10
2023-01-04T05:21:32.810Z,7.05
2023-01-04T05:24:00.104Z,7.68
2023-01-04T05:26:27.499Z,14.73
2023-01-04T05:28:54.825Z,3.47
2023-01-04T05:31:22.532Z,5.68
2023-01-04T05:33:49.838Z,12.65
2023-01-04T05:36:17.526Z,4.72
2023-01-04T05:38:44.843Z,5.80
2023-01-04T05:41:33.284Z,4.35
2023-01-04T05:44:00.736Z,6.88
2023-01-04T05:46:28.186Z,4.15
2023-01-04T05:48:55.722Z,6.35
2023-01-04T05:51:23.222Z,4.80
2023-01-04T05:53:50.698Z,3.58
2023-01-04T05:56:18.063Z,2.55
2023-01-04T05:58:45.548Z,4.82
2023-01-04T06:01:12.915Z,3.08
2023-01-04T06:03:40.330Z,4.97
2023-01-04T06:06:07.905Z,5.60
2023-01-04T06:08:35.312Z,5.47
2023-01-04T06:11:05.101Z,4.97
2023-01-04T06:13:32.591Z,3.40
2023-01-04T06:16:00.157Z,5.30
2023-01-04T06:18:33.299Z,3.50
2023-01-04T06:21:00.778Z,3.92
2023-01-04T06:23:28.174Z,3.95
2023-01-04T06:25:55.615Z,3.35
2023-01-04T06:28:22.942Z,4.03
2023-01-04T06:30:50.292Z,2.42
2023-01-04T06:33:17.742Z,3.90
2023-01-04T06:35:45.106Z,6.00
2023-01-04T06:38:12.552Z,6.75
2023-01-04T06:40:40.066Z,3.22
2023-01-04T06:43:07.385Z,5.25
2023-01-04T06:45:34.739Z,4.55
2023-01-04T06:48:07.310Z,2.38
2023-01-04T06:50:36.736Z,5.90
2023-01-04T06:53:04.208Z,3.13
2023-01-04T06:55:31.613Z,6.03
2023-01-04T06:57:59.618Z,5.53
2023-01-04T07:00:27.333Z,4.65
2023-01-04T07:03:13.706Z,4.35
2023-01-04T07:08:13.184Z,5.40
2023-01-04T07:10:41.062Z,2.95
2023-01-04T07:13:08.779Z,3.83
2023-01-04T07:15:45.359Z,4.07
2023-01-04T07:18:13.222Z,4.50
2023-01-04T07:20:40.610Z,5.05
2023-01-04T07:23:08.280Z,4.13
2023-01-04T07:25:38.761Z,2.72
2023-01-04T07:28:06.502Z,3.40
2023-01-04T07:30:34.096Z,3.05
2023-01-04T07:33:05.835Z,4.15
2023-01-04T07:35:33.177Z,5.22
2023-01-04T07:38:00.571Z,5.50
2023-01-04T07:40:28.344Z,2.38
2023-01-04T07:43:11.349Z,3.88
2023-01-04T07:45:39.945Z,5.00
2023-01-04T07:48:12.197Z,3.85
2023-01-04T07:50:39.625Z,1.98
2023-01-04T07:53:06.948Z,5.68
2023-01-04T07:55:34.412Z,1.73
2023-01-04T07:58:03.417Z,3.22
2023-01-04T08:00:30.341Z,8.43
2023-01-04T08:02:57.629Z,3.30
2023-01-04T08:05:25.346Z,2.35
2023-01-04T08:07:52.800Z,2.53
2023-01-04T08:10:20.104Z,3.63
2023-01-04T08:12:47.348Z,2.03
2023-01-04T08:15:15.373Z,2.47
2023-01-04T08:17:42.629Z,3.95
2023-01-04T08:20:10.001Z,2.78
2023-01-04T08:22:37.379Z,6.93
2023-01-04T08:25:06.274Z,2.20
2023-01-04T08:27:33.853Z,2.28
2023-01-04T08:30:00.803Z,3.95
2023-01-04T08:32:28.013Z,4.85
2023-01-04T08:34:55.632Z,6.03
2023-01-04T08:37:23.038Z,5.00
2023-01-04T08:39:50.340Z,4.70
2023-01-04T08:42:26.572Z,2.88
2023-01-04T08:44:59.901Z,3.15
2023-01-04T08:47:28.582Z,3.58
2023-01-04T08:49:56.014Z,4.07
2023-01-04T08:52:23.084Z,2.95
2023-01-04T08:54:50.457Z,3.55
2023-01-04T08:57:17.915Z,3.00
2023-01-04T08:59:45.373Z,3.47
2023-01-04T09:02:26.902Z,2.15
2023-01-04T09:05:00.123Z,4.45
2023-01-04T09:07:31.222Z,3.83
2023-01-04T09:10:00.398Z,3.25
2023-01-04T09:12:27.399Z,3.20
2023-01-04T09:14:54.616Z,4.53
2023-01-04T09:17:22.969Z,2.95
2023-01-04T09:19:50.259Z,5.10
2023-01-04T09:22:17.648Z,3.97
2023-01-04T09:24:45.020Z,2.05
2023-01-04T09:27:12.300Z,6.40
2023-01-04T09:29:39.597Z,6.03
2023-01-04T09:32:11.366Z,5.80
2023-01-04T09:34:42.159Z,3.67
2023-01-04T09:37:09.418Z,2.30
2023-01-04T09:39:36.666Z,4.93
2023-01-04T09:42:13.815Z,4.13
2023-01-04T09:47:55.493Z,5.03
2023-01-04T09:50:47.391Z,8.93
2023-01-04T09:53:25.078Z,6.70
2023-01-04T09:55:55.061Z,4.07
2023-01-04T09:58:36.505Z,2.38
2023-01-04T10:01:15.258Z,1.98
2023-01-04T10:04:13.417Z,3.05
2023-01-04T10:06:40.799Z,3.00
2023-01-04T10:09:13.067Z,2.30
2023-01-04T10:12:02.094Z,5.15
2023-01-04T10:14:29.408Z,3.40
2023-01-04T10:24:13.974Z,2.30
2023-01-04T10:26:48.133Z,2.63
2023-01-04T10:29:46.962Z,5.05
2023-01-04T10:32:31.637Z,3.13
2023-01-04T10:34:58.973Z,1.70
2023-01-04T10:37:35.672Z,3.15
2023-01-04T10:40:03.130Z,1.63
2023-01-04T10:42:33.465Z,2.53
2023-01-04T10:47:59.767Z,2.58
2023-01-04T10:50:53.269Z,1.33
2023-01-04T10:53:28.521Z,2.97
2023-01-04T10:56:24.928Z,1.85
2023-01-04T10:58:56.896Z,1.45
2023-01-04T11:01:35.275Z,1.10
2023-01-04T11:04:11.379Z,2.60
2023-01-04T11:06:48.923Z,3.00
2023-01-04T11:09:25.099Z,2.47
2023-01-04T11:11:56.495Z,1.30
2023-01-04T11:14:25.392Z,2.25
2023-01-04T11:16:58.562Z,2.20
2023-01-04T11:19:25.984Z,1.23
2023-01-04T11:22:15.842Z,1.42
2023-01-04T11:25:07.738Z,1.58
2023-01-04T11:27:40.330Z,1.48
2023-01-04T11:30:17.051Z,2.28
2023-01-04T11:33:13.579Z,1.35
2023-01-04T11:35:44.009Z,1.58
2023-01-04T11:38:18.233Z,1.65
2023-01-04T11:40:55.203Z,0.80
2023-01-04T11:43:23.916Z,2.45
2023-01-04T11:46:05.650Z,2.17
2023-01-04T11:48:38.959Z,1.33
2023-01-04T11:51:17.151Z,2.70
2023-01-04T11:53:44.674Z,0.90
2023-01-04T11:56:22.042Z,1.15
2023-01-04T11:59:04.445Z,2.17
2023-01-04T12:01:39.324Z,1.60
2023-01-04T12:04:20.240Z,1.77
2023-01-04T12:06:52.297Z,1.52
2023-01-04T12:09:20.726Z,1.10
2023-01-04T12:11:53.415Z,2.53
2023-01-04T12:14:24.923Z,1.50
2023-01-04T12:17:12.291Z,3.53
2023-01-04T12:19:42.280Z,2.13
2023-01-04T12:22:35.638Z,1.67
2023-01-04T12:25:05.593Z,1.50
2023-01-04T12:27:33.078Z,1.23
2023-01-04T12:30:02.203Z,1.77
2023-01-04T12:32:29.496Z,1.20
2023-01-04T12:34:57.075Z,3.38
2023-01-04T12:37:49.710Z,2.17
2023-01-04T12:40:44.543Z,1.65
2023-01-04T12:43:17.383Z,1.88
2023-01-04T12:45:46.294Z,1.67
2023-01-04T12:48:47.039Z,1.10
2023-01-04T12:51:46.941Z,3.38
2023-01-04T12:54:24.741Z,1.08
2023-01-04T12:57:16.517Z,1.13
2023-01-04T13:00:05.235Z,4.97
2023-01-04T13:02:34.206Z,1.80
2023-01-04T13:05:56.476Z,0.80
2023-01-04T13:08:25.044Z,0.88
2023-01-04T13:10:57.007Z,1.58
2023-01-04T13:13:52.690Z,1.88
2023-01-04T13:16:19.956Z,1.70
2023-01-04T13:18:56.544Z,4.55
2023-01-04T13:21:34.838Z,3.22
2023-01-04T13:24:05.185Z,1.95
2023-01-04T13:29:22.159Z,6.03
2023-01-04T13:32:03.435Z,1.13
2023-01-04T13:34:30.711Z,1.55
2023-01-04T13:37:08.517Z,3.75
2023-01-04T13:39:47.611Z,2.25
2023-01-04T13:42:14.943Z,1.25
2023-01-04T13:47:52.099Z,1.67
2023-01-04T13:50:47.216Z,1.75
2023-01-04T13:53:24.025Z,0.60
2023-01-04T13:55:59.762Z,2.03
2023-01-04T13:58:30.742Z,2.38
2023-01-04T14:01:02.848Z,1.02
2023-01-04T14:03:41.751Z,1.98
2023-01-04T14:06:15.577Z,1.00
2023-01-04T14:08:46.412Z,1.90
2023-01-04T14:11:41.698Z,0.82
2023-01-04T14:14:46.775Z,0.95
2023-01-04T14:17:22.445Z,1.00
2023-01-04T14:20:02.577Z,1.40
2023-01-04T14:22:37.989Z,2.15
2023-01-04T14:25:48.706Z,1.00
2023-01-04T14:28:24.864Z,1.35
2023-01-04T14:30:59.942Z,4.15
2023-01-04T14:33:33.096Z,1.38
2023-01-04T14:36:03.485Z,0.60
2023-01-04T14:40:58.270Z,0.55
2023-01-04T14:44:06.988Z,0.80
2023-01-04T14:46:34.397Z,0.90
2023-01-04T14:49:01.782Z,0.68
2023-01-04T14:52:09.379Z,0.30
2023-01-04T14:54:39.139Z,0.50
2023-01-04T14:57:06.043Z,0.60
2023-01-04T14:59:33.351Z,0.40
2023-01-04T15:02:00.983Z,0.75
2023-01-04T15:04:28.473Z,1.27
2023-01-04T15:07:00.527Z,0.68
2023-01-04T15:09:28.231Z,0.77
2023-01-04T15:11:55.194Z,0.60
2023-01-04T15:14:22.523Z,0.80
2023-01-04T15:16:49.981Z,0.75
2023-01-04T15:19:17.327Z,0.98
2023-01-04T15:21:44.666Z,1.10
2023-01-04T15:24:12.044Z,0.60
2023-01-04T15:26:40.309Z,1.20
2023-01-04T15:29:08.633Z,1.30
2023-01-04T15:31:39.952Z,0.63
2023-01-04T15:34:09.306Z,0.60
2023-01-04T15:36:38.791Z,0.68
2023-01-04T15:39:06.255Z,1.95
2023-01-04T15:41:52.329Z,0.60
2023-01-04T15:44:19.714Z,0.75
2023-01-04T15:46:46.788Z,0.88
2023-01-04T15:49:17.463Z,5.72
2023-01-04T15:51:45.476Z,1.67
2023-01-04T15:54:12.943Z,0.50
2023-01-04T15:56:40.482Z,1.77
2023-01-04T15:59:07.800Z,1.38
2023-01-04T16:01:35.317Z,0.52
2023-01-04T16:04:03.187Z,0.88
2023-01-04T16:06:30.476Z,1.40
2023-01-04T16:08:59.002Z,0.80
2023-01-04T16:11:26.543Z,0.50
2023-01-04T16:13:54.242Z,0.80
2023-01-04T16:16:23.204Z,1.30
2023-01-04T16:18:52.229Z,0.82
2023-01-04T16:21:22.502Z,8.07
2023-01-04T16:26:17.883Z,0.32
2023-01-04T16:28:52.815Z,0.70
2023-01-04T16:31:20.767Z,0.70
2023-01-04T16:33:49.630Z,0.73
2023-01-04T16:36:17.050Z,0.57
2023-01-04T16:38:48.712Z,0.93
2023-01-04T16:44:26.266Z,0.73
2023-01-04T16:46:53.877Z,0.60
2023-01-04T16:49:27.732Z,1.13
2023-01-04T16:51:55.090Z,0.52
2023-01-04T16:54:31.693Z,0.73
2023-01-04T16:56:59.059Z,0.55
2023-01-04T16:59:27.034Z,0.90
2023-01-04T17:02:08.227Z,0.60
2023-01-04T17:04:35.785Z,0.75
2023-01-04T17:07:03.093Z,0.73
2023-01-04T17:09:30.528Z,0.55
2023-01-04T17:14:45.480Z,0.50
2023-01-04T17:17:12.960Z,0.40
2023-01-04T17:19:40.241Z,0.40
2023-01-04T17:22:07.556Z,0.82
2023-01-04T17:24:42.249Z,1.20
2023-01-04T17:27:10.837Z,1.67
2023-01-04T17:29:38.505Z,2.70
2023-01-04T17:32:06.034Z,4.32
2023-01-04T17:34:33.520Z,3.08
2023-01-04T17:37:01.027Z,4.43
2023-01-04T17:39:30.999Z,3.67
2023-01-04T17:42:01.498Z,2.30
2023-01-04T17:44:28.940Z,1.08
2023-01-04T17:46:59.032Z,1.30
2023-01-04T17:49:32.171Z,1.25
2023-01-04T17:51:59.920Z,1.38
2023-01-04T17:54:27.400Z,2.33
2023-01-04T17:56:55.177Z,1.15
2023-01-04T17:59:22.819Z,0.70
2023-01-04T18:01:57.181Z,1.40
2023-01-04T18:04:25.044Z,2.15
2023-01-04T18:07:13.618Z,3.25
2023-01-04T18:09:45.106Z,0.70
2023-01-04T18:12:24.482Z,1.80
2023-01-04T18:14:57.974Z,1.73
2023-01-04T18:17:44.519Z,4.32
2023-01-04T18:20:27.442Z,1.73
2023-01-04T18:22:57.995Z,4.80
2023-01-04T18:25:25.405Z,2.53
2023-01-04T18:27:56.494Z,3.15
2023-01-04T18:30:54.507Z,1.42
2023-01-04T18:33:27.563Z,3.05
2023-01-04T18:35:58.349Z,0.50
2023-01-04T18:38:25.993Z,1.13
2023-01-04T18:40:54.174Z,1.25
2023-01-04T18:43:22.004Z,0.70
2023-01-04T18:45:52.173Z,1.13
2023-01-04T18:48:19.687Z,1.17
2023-01-04T18:50:46.954Z,0.82
2023-01-04T18:53:14.245Z,1.13
2023-01-04T18:55:41.515Z,0.40
2023-01-04T18:58:08.800Z,0.50
2023-01-04T19:00:36.076Z,3.08
2023-01-04T19:03:03.443Z,0.30
2023-01-04T19:05:39.332Z,0.32
2023-01-04T19:08:24.441Z,0.30
2023-01-04T19:10:51.778Z,0.25
2023-01-04T19:13:19.149Z,0.95
2023-01-04T19:15:47.823Z,0.25
2023-01-04T19:18:15.286Z,0.30
2023-01-04T19:20:42.757Z,0.40
2023-01-04T19:23:15.835Z,0.60
2023-01-04T19:25:43.237Z,0.43
2023-01-04T19:28:11.559Z,0.50
2023-01-04T19:30:40.729Z,0.85
2023-01-04T19:33:08.403Z,0.50
2023-01-04T19:36:17.115Z,0.63
2023-01-04T19:38:49.788Z,0.70
2023-01-04T19:41:38.509Z,3.50
2023-01-04T19:44:11.036Z,3.30
2023-01-04T19:46:41.849Z,1.63
2023-01-04T19:49:15.186Z,3.40
2023-01-04T19:51:46.561Z,0.88
2023-01-04T19:54:14.422Z,0.98
2023-01-04T19:56:49.558Z,0.80
2023-01-04T19:59:37.335Z,2.67
2023-01-04T20:02:07.127Z,0.60
2023-01-04T20:04:35.008Z,0.90
2023-01-04T20:07:30.950Z,0.50
2023-01-04T20:10:00.808Z,0.52
2023-01-04T20:12:28.259Z,1.83
2023-01-04T20:14:58.843Z,1.67
2023-01-04T20:17:29.161Z,1.05
2023-01-04T20:22:26.838Z,0.85
2023-01-04T20:24:54.570Z,5.25
2023-01-04T20:27:22.807Z,1.80
2023-01-04T20:30:00.715Z,0.73
2023-01-04T20:32:28.714Z,0.93
2023-01-04T20:35:02.752Z,1.10
2023-01-04T20:37:32.512Z,3.33
2023-01-04T20:40:02.955Z,5.72
2023-01-04T20:42:48.741Z,2.55
2023-01-04T20:45:19.715Z,3.72
2023-01-04T20:47:47.752Z,2.50
2023-01-04T20:50:16.756Z,0.70
2023-01-04T20:52:44.003Z,7.00
2023-01-04T20:55:17.398Z,6.32
2023-01-04T20:57:45.316Z,8.43
2023-01-04T21:00:12.971Z,12.48
2023-01-04T21:02:40.456Z,9.02
2023-01-04T21:05:14.977Z,6.38
2023-01-04T21:07:54.105Z,10.70
2023-01-04T21:10:22.879Z,9.77
2023-01-04T21:12:52.167Z,18.33
2023-01-04T21:15:24.922Z,10.98
2023-01-04T21:18:03.607Z,16.05
2023-01-04T21:20:34.871Z,12.55
2023-01-04T21:23:02.840Z,9.27
2023-01-04T21:25:30.180Z,11.52
2023-01-04T21:28:03.133Z,9.07
2023-01-04T21:30:30.421Z,6.75
2023-01-04T21:33:01.691Z,13.45
2023-01-04T21:35:31.753Z,8.82
2023-01-04T21:38:00.032Z,10.60
2023-01-04T21:40:27.393Z,5.70
2023-01-04T21:42:54.912Z,13.98
2023-01-04T21:45:22.205Z,8.48
2023-01-04T21:47:50.046Z,7.50
2023-01-04T21:50:17.881Z,6.97
2023-01-04T21:52:45.261Z,7.25
2023-01-04T21:55:12.597Z,15.30
2023-01-04T21:57:39.930Z,10.70
2023-01-04T22:00:08.268Z,10.18
2023-01-04T22:02:35.754Z,11.32
2023-01-04T22:05:03.118Z,8.25
2023-01-04T22:07:30.463Z,7.03
2023-01-04T22:09:57.960Z,15.02
2023-01-04T22:12:25.286Z,7.30
2023-01-04T22:14:52.694Z,15.38
2023-01-04T22:17:19.934Z,14.60
2023-01-04T22:19:47.424Z,15.48
2023-01-04T22:22:14.677Z,7.70
2023-01-04T22:24:42.183Z,11.40
2023-01-04T22:27:09.558Z,14.15
2023-01-04T22:29:37.130Z,8.13
2023-01-04T22:32:06.996Z,25.10
2023-01-04T22:34:34.326Z,9.27
2023-01-04T22:37:01.576Z,13.55
2023-01-04T22:39:28.970Z,14.15
2023-01-04T22:41:56.266Z,11.90
2023-01-04T22:44:23.775Z,12.38
2023-01-04T22:46:51.130Z,8.75
2023-01-04T22:49:18.479Z,14.98
2023-01-04T22:51:45.819Z,12.60
2023-01-04T22:54:13.132Z,12.45
2023-01-04T22:56:40.509Z,9.48
2023-01-04T22:59:07.823Z,16.55
2023-01-04T23:01:35.212Z,7.95
2023-01-04T23:04:03.132Z,14.10
2023-01-04T23:06:31.572Z,11.20
2023-01-04T23:09:03.764Z,12.48
2023-01-04T23:11:32.331Z,7.53
2023-01-04T23:14:00.176Z,10.90
2023-01-04T23:16:32.401Z,7.93
2023-01-04T23:19:05.086Z,13.60
2023-01-04T23:21:32.839Z,12.50
2023-01-04T23:24:00.217Z,12.05
2023-01-04T23:26:28.915Z,8.63
2023-01-04T23:28:56.322Z,9.38
2023-01-04T23:31:25.485Z,11.68
2023-01-04T23:33:56.563Z,7.72
2023-01-04T23:36:26.191Z,6.18
2023-01-04T23:38:55.360Z,14.65
2023-01-04T23:41:42.974Z,6.93
2023-01-04T23:44:15.365Z,11.90
2023-01-04T23:46:43.056Z,5.63
2023-01-04T23:49:10.787Z,9.45
2023-01-04T23:51:38.551Z,9.40
2023-01-04T23:54:06.344Z,12.70
2023-01-04T23:56:33.748Z,7.03
2023-01-04T23:59:01.066Z,13.00
